createdAt,value
2018-04-01T10:52:25.830Z,29.90
2018-04-01T10:56:41.457Z,35.60
2018-04-01T10:59:09.404Z,35.50
2018-04-01T11:01:37.383Z,45.40
2018-04-01T11:04:05.361Z,37.10
2018-04-01T11:06:33.334Z,37.50
2018-04-01T11:09:01.324Z,36.80
2018-04-01T11:11:29.334Z,37.40
2018-04-01T11:13:58.025Z,36.90
2018-04-01T11:16:25.996Z,36.70
2018-04-01T11:18:53.963Z,37.20
2018-04-01T11:21:21.944Z,37.30
2018-04-01T11:34:29.128Z,44.50
2018-04-01T11:36:57.126Z,37.10
2018-04-01T11:53:06.862Z,34.00
2018-04-01T11:56:17.952Z,34.00
2018-04-01T12:00:07.613Z,32.10
2018-04-01T12:02:35.621Z,32.60
2018-04-01T12:06:28.432Z,35.20
2018-04-01T12:12:39.600Z,42.60
2018-04-01T12:14:57.867Z,40.70
2018-04-01T12:15:11.620Z,39.50
2018-04-01T12:15:24.586Z,39.30
2018-04-01T12:15:38.565Z,38.40
2018-04-01T12:15:51.540Z,38.30
2018-04-01T12:16:04.518Z,38.50
2018-04-01T12:16:18.333Z,38.80
2018-04-01T12:16:31.447Z,38.70
2018-04-01T12:16:45.201Z,39.80
2018-04-01T12:17:00.584Z,40.20
2018-04-01T12:17:36.293Z,42.10
2018-04-01T12:17:49.300Z,42.10
2018-04-01T12:18:03.031Z,41.40
2018-04-01T12:18:16.015Z,41.20
2018-04-01T12:18:29.760Z,41.70
2018-04-01T12:21:23.977Z,38.90
2018-04-01T12:23:51.985Z,37.00
2018-04-01T12:26:19.973Z,36.70
2018-04-01T12:28:47.979Z,37.00
2018-04-01T12:31:15.973Z,43.70
2018-04-01T12:33:44.813Z,37.60
2018-04-01T12:36:13.570Z,34.10
2018-04-01T12:38:41.577Z,34.00
2018-04-01T12:41:10.352Z,34.90
2018-04-01T12:43:38.349Z,34.10
2018-04-01T12:46:07.112Z,35.50
2018-04-01T12:48:35.119Z,35.60
2018-04-01T12:51:03.144Z,35.50
2018-04-01T12:53:31.146Z,35.50
2018-04-01T12:55:59.924Z,35.80
2018-04-01T12:58:28.676Z,35.80
2018-04-01T13:00:56.671Z,35.80
2018-04-01T13:03:24.681Z,35.70
2018-04-01T13:05:52.680Z,35.90
2018-04-01T13:08:20.683Z,35.90
2018-04-01T13:10:48.694Z,35.90
2018-04-01T13:13:16.695Z,35.90
2018-04-01T13:15:44.690Z,36.00
2018-04-01T13:18:12.700Z,36.00
2018-04-01T13:20:44.128Z,35.90
2018-04-01T13:23:12.897Z,36.50
2018-04-01T13:25:40.898Z,36.00
2018-04-01T13:28:09.672Z,36.00
2018-04-01T13:30:38.454Z,36.00
2018-04-01T13:33:06.439Z,35.90
2018-04-01T13:35:34.442Z,36.00
2018-04-01T13:38:02.443Z,36.00
2018-04-01T13:40:30.439Z,35.90
2018-04-01T13:42:58.442Z,35.90
2018-04-01T13:45:26.439Z,35.90
2018-04-01T13:47:54.432Z,35.90
2018-04-01T13:50:35.689Z,35.90
2018-04-01T13:53:03.695Z,35.90
2018-04-01T13:55:31.695Z,35.90
2018-04-01T13:58:00.460Z,36.00
2018-04-01T14:00:28.471Z,36.00
2018-04-01T14:02:56.471Z,36.10
2018-04-01T14:05:24.465Z,36.00
2018-04-01T14:07:52.460Z,35.90
2018-04-01T14:10:21.247Z,36.00
2018-04-01T14:12:50.016Z,35.90
2018-04-01T14:15:18.012Z,35.80
2018-04-01T14:17:46.768Z,36.00
2018-04-01T14:20:14.853Z,36.00
2018-04-01T14:22:42.836Z,36.00
2018-04-01T14:25:11.603Z,36.00
2018-04-01T14:27:40.461Z,36.00
2018-04-01T14:30:08.423Z,36.00
2018-04-01T14:32:36.423Z,35.90
2018-04-01T14:35:04.417Z,35.80
2018-04-01T14:37:33.176Z,35.90
2018-04-01T14:40:01.179Z,35.80
2018-04-01T14:42:29.935Z,35.80
2018-04-01T14:44:57.955Z,35.80
2018-04-01T14:50:33.844Z,35.80
2018-04-01T14:53:01.859Z,35.70
2018-04-01T14:55:29.847Z,35.80
2018-04-01T14:57:58.610Z,35.70
2018-04-01T15:00:26.616Z,35.70
2018-04-01T15:02:55.396Z,35.70
2018-04-01T15:05:23.393Z,35.60
2018-04-01T15:07:51.392Z,35.70
2018-04-01T15:10:19.394Z,35.60
2018-04-01T15:12:47.405Z,35.60
2018-04-01T15:15:15.415Z,35.60
2018-04-01T15:17:43.415Z,35.60
2018-04-01T15:20:11.424Z,35.60
2018-04-01T15:22:39.419Z,35.60
2018-04-01T15:25:07.412Z,35.60
2018-04-01T15:27:36.194Z,35.60
2018-04-01T15:30:04.192Z,35.60
2018-04-01T15:32:32.960Z,36.10
2018-04-01T15:35:00.965Z,35.40
2018-04-01T15:37:29.722Z,35.40
2018-04-01T15:39:57.720Z,35.40
2018-04-01T15:42:26.496Z,35.40
2018-04-01T15:44:54.488Z,35.30
2018-04-01T15:47:23.251Z,35.30
2018-04-01T15:49:51.251Z,35.30
2018-04-01T15:52:19.284Z,35.30
2018-04-01T15:54:47.265Z,35.30
2018-04-01T15:57:16.042Z,35.20
2018-04-01T15:59:44.036Z,35.80
2018-04-01T16:02:12.811Z,33.30
2018-04-01T16:04:41.596Z,32.60
2018-04-01T16:07:10.359Z,31.90
2018-04-01T16:09:38.350Z,31.90
2018-04-01T16:12:06.351Z,31.80
2018-04-01T16:14:35.117Z,31.70
2018-04-01T16:17:16.612Z,31.60
2018-04-01T16:19:45.364Z,31.70
2018-04-01T16:22:13.401Z,31.60
2018-04-01T16:24:49.714Z,32.00
2018-04-01T16:27:18.251Z,32.00
2018-04-01T18:40:46.519Z,37.60
2018-04-01T18:43:14.604Z,38.00
2018-04-01T18:45:42.649Z,38.50
2018-04-01T18:48:11.494Z,38.50
2018-04-01T18:50:39.843Z,38.40
2018-04-01T18:53:08.954Z,38.30
2018-04-01T18:55:37.177Z,38.20
2018-04-01T18:58:05.965Z,38.00
2018-04-01T19:00:35.015Z,38.00
2018-04-01T19:03:03.036Z,37.30
2018-04-01T19:05:31.819Z,37.80
2018-04-01T19:07:59.832Z,37.60
2018-04-01T19:10:27.855Z,37.60
2018-04-01T19:12:55.848Z,37.50
2018-04-01T19:15:23.867Z,37.40
2018-04-01T19:17:52.640Z,37.30
2018-04-01T19:20:23.391Z,37.20
2018-04-01T19:22:52.428Z,37.20
2018-04-01T19:25:21.478Z,37.20
2018-04-01T19:27:50.517Z,37.10
2018-04-01T19:32:43.978Z,36.90
2018-04-01T19:35:14.029Z,36.90
2018-04-01T19:37:44.393Z,37.00
2018-04-01T19:40:14.260Z,36.90
2018-04-01T19:42:44.088Z,36.90
2018-04-01T19:45:13.902Z,36.80
2018-04-01T19:47:43.731Z,36.80
2018-04-01T19:50:13.547Z,37.00
2018-04-01T19:52:43.354Z,36.80
2018-04-01T19:55:13.171Z,36.70
2018-04-01T19:57:43.156Z,36.60
2018-04-01T20:00:13.738Z,36.60
2018-04-01T20:02:43.547Z,36.50
2018-04-01T20:05:13.362Z,36.50
2018-04-01T20:07:43.172Z,36.40
2018-04-01T20:10:13.017Z,36.70
2018-04-01T20:12:43.598Z,36.70
2018-04-01T20:15:13.435Z,36.70
2018-04-01T20:17:43.258Z,36.60
2018-04-01T20:20:13.071Z,36.70
2018-04-01T20:22:42.892Z,36.70
2018-04-01T20:25:12.707Z,36.70
2018-04-01T20:27:42.532Z,36.90
2018-04-01T20:30:12.342Z,36.40
2018-04-01T20:32:43.185Z,36.40
2018-04-01T20:35:33.214Z,36.70
2018-04-01T20:38:03.023Z,36.60
2018-04-01T20:40:32.829Z,36.50
2018-04-01T20:43:02.658Z,36.00
2018-04-01T20:45:32.478Z,35.90
2018-04-01T20:48:02.357Z,36.10
2018-04-01T20:50:32.217Z,35.90
2018-04-01T20:53:02.039Z,35.90
2018-04-01T20:55:31.863Z,35.90
2018-04-01T20:58:01.680Z,35.80
2018-04-01T21:00:31.486Z,35.80
2018-04-01T21:03:01.465Z,36.20
2018-04-01T21:05:31.300Z,35.90
2018-04-01T21:08:01.160Z,35.90
2018-04-01T21:10:31.730Z,35.90
2018-04-01T21:13:01.559Z,35.90
2018-04-01T21:15:31.375Z,36.00
2018-04-01T21:18:01.197Z,36.00
2018-04-01T21:20:31.775Z,36.10
2018-04-01T21:23:01.595Z,36.10
2018-04-01T21:25:31.394Z,36.10
2018-04-01T21:31:09.195Z,36.10
2018-04-01T21:33:39.789Z,36.20
2018-04-01T21:36:09.608Z,36.20
2018-04-01T21:38:39.426Z,36.70
2018-04-01T21:41:09.248Z,36.50
2018-04-01T21:43:39.180Z,36.40
2018-04-01T21:46:09.762Z,36.50
2018-04-01T21:48:39.587Z,36.40
2018-04-01T21:51:09.402Z,36.40
2018-04-01T21:53:39.233Z,36.50
2018-04-01T21:56:09.047Z,36.40
2018-04-01T21:58:38.860Z,36.50
2018-04-01T22:01:09.063Z,36.40
2018-04-01T22:03:39.922Z,36.60
2018-04-01T22:06:09.768Z,36.50
2018-04-01T22:08:39.679Z,37.40
2018-04-01T22:11:09.491Z,36.60
2018-04-01T22:13:39.329Z,36.60
2018-04-01T22:16:09.174Z,36.60
2018-04-01T22:18:39.010Z,36.70
2018-04-01T22:21:09.591Z,36.60
2018-04-01T22:23:40.126Z,36.60
2018-04-01T22:26:17.830Z,36.60
2018-04-01T22:28:47.780Z,36.50
2018-04-01T22:31:17.593Z,36.50
2018-04-01T22:33:47.452Z,36.60
2018-04-01T22:36:17.276Z,36.50
2018-04-01T22:38:47.106Z,36.60
2018-04-01T22:41:16.918Z,36.60
2018-04-01T22:43:46.753Z,36.50
2018-04-01T22:46:16.582Z,36.40
2018-04-01T22:48:47.173Z,36.40
2018-04-01T22:51:16.986Z,36.30
2018-04-01T22:53:46.839Z,36.40
2018-04-01T22:56:17.944Z,36.50
2018-04-01T22:58:50.309Z,36.80
2018-04-01T23:01:20.137Z,36.50
2018-04-01T23:03:55.898Z,36.50
